createdAt,value
2019-03-08T00:01:32.125Z,1.50
2019-03-08T00:04:07.221Z,1.15
2019-03-08T00:06:36.138Z,1.92
2019-03-08T00:09:09.044Z,1.40
2019-03-08T00:11:52.493Z,1.52
2019-03-08T00:14:31.517Z,1.30
2019-03-08T00:17:03.586Z,1.55
2019-03-08T00:19:58.768Z,1.52
2019-03-08T00:22:34.870Z,1.25
2019-03-08T00:25:16.025Z,1.45
2019-03-08T00:27:51.106Z,1.45
2019-03-08T00:30:21.152Z,1.30
2019-03-08T00:32:59.081Z,1.20
2019-03-08T00:35:28.216Z,1.47
2019-03-08T00:38:11.156Z,1.00
2019-03-08T00:40:41.257Z,1.37
2019-03-08T00:43:10.285Z,1.70
2019-03-08T00:45:39.242Z,1.40
2019-03-08T00:48:08.332Z,1.55
2019-03-08T00:50:37.254Z,1.25
2019-03-08T00:53:15.782Z,1.50
2019-03-08T00:55:51.112Z,1.12
2019-03-08T00:58:21.135Z,1.70
2019-03-08T01:00:57.234Z,1.27
2019-03-08T01:03:27.234Z,1.15
2019-03-08T01:05:56.514Z,1.30
2019-03-08T01:08:25.625Z,1.20
2019-03-08T01:10:55.510Z,1.40
2019-03-08T01:13:27.525Z,1.50
2019-03-08T01:15:57.722Z,1.20
2019-03-08T01:18:33.562Z,1.40
2019-03-08T01:21:05.061Z,1.20
2019-03-08T01:23:48.981Z,1.30
2019-03-08T01:26:18.974Z,1.30
2019-03-08T01:29:01.326Z,1.30
2019-03-08T01:31:46.445Z,1.67
2019-03-08T01:34:52.369Z,1.10
2019-03-08T01:37:14.573Z,1.47
2019-03-08T01:39:45.849Z,1.37
2019-03-08T01:42:14.878Z,1.12
2019-03-08T01:44:47.590Z,1.35
2019-03-08T01:47:16.619Z,1.17
2019-03-08T01:49:46.735Z,1.75
2019-03-08T01:52:18.242Z,1.25
2019-03-08T01:54:58.549Z,1.35
2019-03-08T01:57:27.889Z,1.35
2019-03-08T02:00:19.960Z,1.37
2019-03-08T02:03:05.204Z,1.00
2019-03-08T02:05:42.369Z,1.10
2019-03-08T02:08:11.579Z,1.00
2019-03-08T02:10:43.625Z,1.05
2019-03-08T02:13:13.666Z,1.40
2019-03-08T02:15:49.691Z,1.02
2019-03-08T02:18:20.724Z,0.90
2019-03-08T02:21:06.461Z,1.12
2019-03-08T02:23:30.174Z,0.90
2019-03-08T02:25:59.231Z,1.10
2019-03-08T02:28:29.425Z,1.20
2019-03-08T02:30:58.558Z,1.05
2019-03-08T02:33:29.145Z,1.25
2019-03-08T02:36:01.562Z,1.10
2019-03-08T02:38:30.816Z,1.00
2019-03-08T02:41:09.013Z,0.90
2019-03-08T02:43:44.914Z,0.85
2019-03-08T02:46:13.912Z,0.80
2019-03-08T02:48:50.110Z,0.80
2019-03-08T02:51:19.120Z,0.80
2019-03-08T02:53:48.031Z,0.72
2019-03-08T02:56:19.163Z,0.80
2019-03-08T02:58:49.172Z,0.70
2019-03-08T03:01:18.269Z,0.70
2019-03-08T03:03:50.253Z,0.90
2019-03-08T03:06:20.237Z,0.70
2019-03-08T03:08:57.091Z,0.90
2019-03-08T03:11:26.223Z,0.80
2019-03-08T03:13:58.516Z,0.80
2019-03-08T03:16:36.477Z,0.75
2019-03-08T03:19:05.578Z,0.70
2019-03-08T03:21:37.653Z,1.00
2019-03-08T03:24:06.905Z,0.80
2019-03-08T03:26:41.885Z,0.80
2019-03-08T03:29:18.866Z,0.72
2019-03-08T03:31:48.885Z,0.70
2019-03-08T03:34:18.002Z,0.80
2019-03-08T03:36:48.922Z,0.80
2019-03-08T03:39:24.879Z,1.00
2019-03-08T03:41:55.065Z,1.00
2019-03-08T03:44:29.171Z,0.70
2019-03-08T03:46:58.534Z,0.80
2019-03-08T03:49:30.650Z,0.70
2019-03-08T03:51:59.705Z,0.90
2019-03-08T03:54:30.863Z,0.80
2019-03-08T03:56:59.845Z,0.80
2019-03-08T03:59:29.375Z,0.90
2019-03-08T04:02:00.333Z,0.90
2019-03-08T04:04:31.263Z,1.00
2019-03-08T04:07:00.098Z,0.80
2019-03-08T04:09:39.988Z,0.90
2019-03-08T04:12:09.066Z,0.80
2019-03-08T04:14:44.087Z,1.02
2019-03-08T04:17:14.175Z,0.82
2019-03-08T04:19:43.045Z,0.80
2019-03-08T04:22:24.851Z,0.90
2019-03-08T04:24:55.010Z,1.00
2019-03-08T04:27:26.949Z,0.90
2019-03-08T04:30:01.968Z,0.93
2019-03-08T04:32:43.137Z,0.80
2019-03-08T04:35:15.274Z,0.70
2019-03-08T04:37:50.442Z,0.85
2019-03-08T04:40:33.668Z,0.90
2019-03-08T04:43:09.420Z,0.85
2019-03-08T04:45:46.183Z,2.40
2019-03-08T04:48:15.110Z,0.80
2019-03-08T04:50:59.320Z,0.70
2019-03-08T04:53:28.247Z,0.80
2019-03-08T04:55:57.297Z,1.50
2019-03-08T04:58:26.307Z,0.70
2019-03-08T05:00:55.996Z,0.85
2019-03-08T05:03:25.009Z,0.70
2019-03-08T05:05:54.002Z,0.90
2019-03-08T05:08:23.300Z,0.90
2019-03-08T05:10:52.110Z,0.80
2019-03-08T05:13:21.115Z,0.88
2019-03-08T05:15:49.929Z,1.07
2019-03-08T05:18:18.846Z,0.88
2019-03-08T05:20:47.725Z,1.50
2019-03-08T05:23:16.944Z,1.00
2019-03-08T05:25:45.894Z,0.85
2019-03-08T05:28:14.789Z,0.88
2019-03-08T05:30:43.920Z,0.70
2019-03-08T05:33:12.717Z,0.90
2019-03-08T05:35:41.556Z,0.90
2019-03-08T05:38:10.381Z,0.98
2019-03-08T05:40:39.206Z,0.80
2019-03-08T05:43:08.013Z,0.80
2019-03-08T05:45:37.012Z,0.75
2019-03-08T05:48:06.201Z,0.95
2019-03-08T05:50:35.041Z,1.00
2019-03-08T05:53:03.974Z,1.30
2019-03-08T05:55:36.309Z,0.80
2019-03-08T05:58:05.209Z,1.47
2019-03-08T06:00:34.918Z,1.20
2019-03-08T06:03:04.792Z,1.10
2019-03-08T06:05:33.775Z,1.10
2019-03-08T06:08:02.653Z,1.00
2019-03-08T06:10:35.708Z,0.90
2019-03-08T06:13:05.252Z,0.90
2019-03-08T06:15:34.867Z,1.10
2019-03-08T06:18:04.000Z,1.10
2019-03-08T06:20:55.980Z,1.22
2019-03-08T06:23:24.872Z,0.90
2019-03-08T06:25:54.924Z,1.02
2019-03-08T06:28:24.879Z,0.80
2019-03-08T06:31:03.784Z,0.95
2019-03-08T06:33:32.733Z,1.20
2019-03-08T06:36:07.733Z,1.00
2019-03-08T06:38:36.963Z,1.22
2019-03-08T06:41:08.199Z,0.93
2019-03-08T06:43:37.041Z,1.30
2019-03-08T06:46:06.097Z,1.07
2019-03-08T06:48:47.148Z,1.30
2019-03-08T06:51:17.288Z,1.22
2019-03-08T06:53:46.349Z,1.30
2019-03-08T06:56:15.341Z,1.32
2019-03-08T06:58:52.428Z,1.32
2019-03-08T07:01:30.245Z,1.40
2019-03-08T07:04:00.237Z,1.27
2019-03-08T07:06:34.976Z,1.40
2019-03-08T07:09:06.838Z,1.27
2019-03-08T07:11:43.330Z,1.30
2019-03-08T07:14:27.821Z,1.42
2019-03-08T07:16:57.750Z,1.00
2019-03-08T07:19:27.654Z,2.00
2019-03-08T07:22:06.973Z,1.30
2019-03-08T07:24:59.206Z,1.10
2019-03-08T07:27:46.568Z,1.45
2019-03-08T07:30:57.705Z,1.57
2019-03-08T07:33:52.885Z,1.85
2019-03-08T07:36:31.546Z,1.35
2019-03-08T07:39:14.596Z,1.45
2019-03-08T07:42:07.975Z,1.75
2019-03-08T07:44:59.465Z,1.30
2019-03-08T07:47:43.361Z,1.35
2019-03-08T07:50:40.509Z,1.30
2019-03-08T07:53:57.892Z,1.15
2019-03-08T07:56:49.174Z,1.42
2019-03-08T07:59:41.378Z,1.40
2019-03-08T08:02:28.442Z,1.50
2019-03-08T08:05:13.368Z,1.35
2019-03-08T08:08:04.502Z,1.62
2019-03-08T08:10:44.771Z,1.45
2019-03-08T08:13:35.622Z,1.30
2019-03-08T08:16:35.737Z,1.30
2019-03-08T08:19:20.880Z,1.65
2019-03-08T08:21:58.544Z,1.20
2019-03-08T08:24:39.744Z,1.27
2019-03-08T08:27:16.713Z,2.20
2019-03-08T08:30:15.698Z,1.40
2019-03-08T08:33:16.762Z,1.77
2019-03-08T08:36:07.001Z,1.55
2019-03-08T08:38:54.186Z,1.55
2019-03-08T08:41:40.197Z,1.30
2019-03-08T08:44:27.844Z,1.50
2019-03-08T08:47:28.197Z,1.70
2019-03-08T08:50:06.528Z,1.55
2019-03-08T08:52:53.481Z,1.65
2019-03-08T08:55:47.425Z,3.37
2019-03-08T08:58:32.089Z,1.40
2019-03-08T09:01:23.569Z,1.70
2019-03-08T09:04:11.883Z,2.00
2019-03-08T09:06:58.841Z,1.67
2019-03-08T09:09:45.045Z,1.52
2019-03-08T09:12:48.297Z,1.55
2019-03-08T09:15:39.565Z,1.90
2019-03-08T09:18:39.568Z,1.83
2019-03-08T09:21:41.725Z,2.00
2019-03-08T09:24:27.674Z,2.52
2019-03-08T09:27:15.580Z,1.87
2019-03-08T09:30:03.797Z,1.72
2019-03-08T09:32:58.967Z,1.90
2019-03-08T09:35:27.097Z,1.60
2019-03-08T09:38:15.271Z,2.08
2019-03-08T09:41:02.090Z,1.40
2019-03-08T09:43:56.322Z,1.50
2019-03-08T09:47:07.756Z,1.72
2019-03-08T09:50:05.142Z,2.10
2019-03-08T09:52:52.318Z,1.60
2019-03-08T09:55:30.097Z,1.50
2019-03-08T09:58:20.707Z,1.75
2019-03-08T10:01:05.538Z,1.70
2019-03-08T10:03:54.716Z,2.08
2019-03-08T10:06:38.720Z,1.60
2019-03-08T10:09:40.213Z,1.62
2019-03-08T10:12:24.328Z,1.40
2019-03-08T10:15:16.177Z,1.55
2019-03-08T10:18:18.565Z,1.52
2019-03-08T10:21:10.086Z,1.50
2019-03-08T10:24:33.770Z,1.50
2019-03-08T10:27:21.113Z,1.20
2019-03-08T10:30:22.695Z,1.20
2019-03-08T10:33:20.901Z,1.67
2019-03-08T10:36:03.134Z,1.50
2019-03-08T10:39:06.458Z,1.42
2019-03-08T10:42:00.470Z,1.30
2019-03-08T10:44:51.295Z,1.20
2019-03-08T10:47:55.770Z,1.30
2019-03-08T10:50:30.602Z,1.60
2019-03-08T10:53:19.856Z,1.30
2019-03-08T10:56:25.322Z,1.33
2019-03-08T10:59:28.218Z,2.17
2019-03-08T11:02:13.340Z,1.32
2019-03-08T11:04:48.704Z,1.32
2019-03-08T11:07:41.864Z,1.50
2019-03-08T11:10:20.437Z,1.52
2019-03-08T11:13:13.383Z,1.30
2019-03-08T11:15:58.937Z,1.20
2019-03-08T11:18:48.733Z,1.40
2019-03-08T11:21:41.858Z,1.10
2019-03-08T11:25:08.261Z,1.35
2019-03-08T11:28:20.779Z,1.30
2019-03-08T11:31:28.154Z,1.62
2019-03-08T11:34:10.206Z,1.20
2019-03-08T11:36:54.198Z,3.47
2019-03-08T11:39:51.194Z,1.55
2019-03-08T11:42:32.212Z,1.47
2019-03-08T11:45:33.539Z,1.40
2019-03-08T11:48:19.558Z,1.60
2019-03-08T11:51:15.447Z,1.47
2019-03-08T11:54:15.878Z,1.43
2019-03-08T11:57:07.198Z,1.65
2019-03-08T11:59:44.573Z,1.80
2019-03-08T12:02:47.937Z,2.07
2019-03-08T12:05:29.994Z,1.40
2019-03-08T12:08:13.406Z,1.25
2019-03-08T12:11:17.398Z,1.40
2019-03-08T12:14:20.365Z,1.35
2019-03-08T12:17:10.876Z,1.20
2019-03-08T12:20:22.716Z,1.80
2019-03-08T12:23:05.306Z,1.25
2019-03-08T12:25:53.394Z,1.45
2019-03-08T12:28:34.342Z,1.52
2019-03-08T12:31:21.325Z,1.50
2019-03-08T12:34:18.747Z,1.30
2019-03-08T12:37:06.530Z,1.62
2019-03-08T12:39:52.993Z,1.40
2019-03-08T12:42:44.147Z,1.50
2019-03-08T12:45:24.895Z,1.40
2019-03-08T12:48:11.142Z,1.72
2019-03-08T12:50:53.282Z,1.30
2019-03-08T12:53:36.949Z,1.60
2019-03-08T12:56:15.992Z,1.80
2019-03-08T12:59:08.555Z,1.70
2019-03-08T13:02:16.466Z,1.62
2019-03-08T13:04:59.265Z,1.50
2019-03-08T13:08:02.617Z,1.57
2019-03-08T13:10:31.567Z,1.33
2019-03-08T13:13:00.486Z,1.70
2019-03-08T13:15:29.416Z,1.43
2019-03-08T13:18:07.501Z,1.63
2019-03-08T13:20:36.436Z,1.60
2019-03-08T13:23:05.437Z,1.60
2019-03-08T13:25:36.387Z,1.47
2019-03-08T13:28:05.121Z,1.90
2019-03-08T13:30:36.860Z,2.37
2019-03-08T13:33:05.778Z,1.80
2019-03-08T13:35:34.974Z,1.65
2019-03-08T13:38:04.005Z,1.30
2019-03-08T13:40:35.481Z,1.55
2019-03-08T13:43:04.637Z,1.50
2019-03-08T13:45:33.634Z,1.60
2019-03-08T13:48:02.559Z,1.40
2019-03-08T13:50:31.962Z,1.80
2019-03-08T13:53:00.890Z,1.55
2019-03-08T13:55:29.948Z,2.20
2019-03-08T13:57:58.898Z,1.85
2019-03-08T14:00:27.827Z,1.65
2019-03-08T14:02:56.707Z,1.32
2019-03-08T14:05:25.641Z,2.08
2019-03-08T14:07:54.578Z,1.90
2019-03-08T14:10:23.642Z,1.67
2019-03-08T14:12:52.626Z,1.40
2019-03-08T14:15:21.646Z,1.60
2019-03-08T14:17:50.585Z,1.62
2019-03-08T14:20:19.973Z,1.60
2019-03-08T14:22:48.985Z,1.47
2019-03-08T14:25:18.012Z,1.27
2019-03-08T14:27:47.030Z,1.73
2019-03-08T14:30:17.220Z,1.25
2019-03-08T14:32:46.603Z,1.52
2019-03-08T14:35:15.535Z,1.47
2019-03-08T14:37:44.470Z,1.83
2019-03-08T14:40:40.138Z,1.62
2019-03-08T14:43:18.194Z,1.30
2019-03-08T14:46:06.463Z,1.20
2019-03-08T14:48:36.449Z,1.20
2019-03-08T14:51:09.318Z,1.65
2019-03-08T14:53:39.398Z,1.32
2019-03-08T14:56:08.400Z,1.60
2019-03-08T14:58:42.546Z,1.40
2019-03-08T15:01:14.686Z,1.72
2019-03-08T15:03:44.043Z,1.60
2019-03-08T15:06:13.135Z,1.40
2019-03-08T15:08:42.098Z,1.75
2019-03-08T15:11:11.075Z,1.60
2019-03-08T15:13:41.065Z,1.75
2019-03-08T15:16:10.070Z,1.35
2019-03-08T15:18:39.022Z,1.60
2019-03-08T15:21:11.915Z,2.15
2019-03-08T15:23:40.732Z,2.17
2019-03-08T15:26:09.731Z,1.67
2019-03-08T15:28:38.642Z,2.40
2019-03-08T15:31:07.749Z,1.70
2019-03-08T15:33:36.653Z,1.65
2019-03-08T15:36:05.678Z,1.85
2019-03-08T15:38:34.649Z,1.52
2019-03-08T15:41:04.192Z,1.52
2019-03-08T15:43:33.177Z,1.55
2019-03-08T15:46:03.900Z,1.60
2019-03-08T15:48:33.837Z,1.60
2019-03-08T15:51:02.849Z,1.45
2019-03-08T15:53:40.630Z,1.50
2019-03-08T15:56:09.643Z,1.50
2019-03-08T15:58:40.006Z,1.60
2019-03-08T16:01:09.247Z,1.37
2019-03-08T16:03:38.444Z,1.75
2019-03-08T16:06:07.570Z,1.40
2019-03-08T16:08:39.711Z,1.45
2019-03-08T16:11:35.252Z,1.55
2019-03-08T16:14:16.740Z,1.62
2019-03-08T16:16:45.809Z,1.60
2019-03-08T16:19:20.830Z,1.52
2019-03-08T16:21:50.657Z,1.60
2019-03-08T16:24:19.378Z,1.72
2019-03-08T16:26:48.408Z,1.55
2019-03-08T16:29:18.171Z,2.08
2019-03-08T16:31:55.266Z,1.85
2019-03-08T16:34:24.131Z,1.85
2019-03-08T16:37:18.106Z,1.98
2019-03-08T16:40:11.898Z,1.92
2019-03-08T16:42:56.504Z,1.90
2019-03-08T16:45:44.963Z,2.35
2019-03-08T16:48:35.045Z,2.17
2019-03-08T16:51:24.659Z,1.90
2019-03-08T16:54:08.183Z,1.95
2019-03-08T16:56:53.653Z,1.90
2019-03-08T16:59:53.629Z,4.80
2019-03-08T17:02:42.096Z,1.80
2019-03-08T17:05:33.034Z,2.22
2019-03-08T17:08:09.371Z,2.90
2019-03-08T17:11:06.406Z,1.80
2019-03-08T17:13:55.207Z,1.90
2019-03-08T17:16:41.985Z,1.77
2019-03-08T17:19:29.825Z,1.70
2019-03-08T17:22:16.631Z,1.80
2019-03-08T17:24:56.199Z,1.90
2019-03-08T17:27:32.118Z,1.62
2019-03-08T17:30:19.650Z,1.60
2019-03-08T17:33:01.437Z,1.75
2019-03-08T17:35:58.518Z,2.10
2019-03-08T17:38:42.026Z,1.62
2019-03-08T17:41:36.189Z,1.80
2019-03-08T17:44:25.326Z,1.57
2019-03-08T17:47:22.226Z,2.00
2019-03-08T17:50:23.469Z,1.77
2019-03-08T17:53:02.609Z,2.30
2019-03-08T17:56:08.897Z,2.40
2019-03-08T17:58:52.233Z,2.55
2019-03-08T18:01:40.742Z,4.03
2019-03-08T18:04:36.882Z,3.00
2019-03-08T18:07:44.085Z,2.10
2019-03-08T18:10:28.065Z,1.98
2019-03-08T18:13:30.626Z,2.20
2019-03-08T18:16:08.032Z,1.92
2019-03-08T18:18:56.174Z,2.27
2019-03-08T18:21:49.879Z,2.67
2019-03-08T18:24:35.444Z,2.20
2019-03-08T18:27:32.598Z,2.05
2019-03-08T18:30:17.603Z,2.47
2019-03-08T18:32:54.732Z,2.12
2019-03-08T18:35:49.483Z,2.65
2019-03-08T18:38:40.574Z,1.90
2019-03-08T18:41:27.381Z,2.62
2019-03-08T18:44:18.546Z,7.25
2019-03-08T18:46:53.542Z,9.25
2019-03-08T18:49:28.341Z,5.08
2019-03-08T18:52:15.171Z,2.85
2019-03-08T18:54:54.513Z,2.10
2019-03-08T18:57:57.678Z,2.30
2019-03-08T19:00:38.157Z,2.50
2019-03-08T19:03:38.195Z,2.35
2019-03-08T19:06:29.233Z,3.50
2019-03-08T19:09:13.677Z,2.90
2019-03-08T19:12:01.873Z,3.05
2019-03-08T19:15:00.374Z,2.98
2019-03-08T19:17:48.630Z,2.70
2019-03-08T19:20:30.094Z,2.47
2019-03-08T19:23:12.737Z,3.20
2019-03-08T19:25:51.385Z,2.55
2019-03-08T19:28:45.387Z,2.70
2019-03-08T19:31:31.297Z,3.20
2019-03-08T19:34:15.856Z,2.47
2019-03-08T19:37:03.776Z,2.77
2019-03-08T19:39:50.524Z,2.52
2019-03-08T19:42:39.495Z,2.20
2019-03-08T19:45:35.454Z,2.30
2019-03-08T19:48:27.038Z,2.27
2019-03-08T19:51:40.092Z,2.62
2019-03-08T19:54:20.608Z,2.77
2019-03-08T19:57:09.546Z,2.45
2019-03-08T19:59:58.711Z,2.90
2019-03-08T20:03:08.625Z,2.75
2019-03-08T20:06:04.064Z,3.33
2019-03-08T20:09:01.569Z,3.30
2019-03-08T20:11:48.630Z,2.95
2019-03-08T20:14:31.367Z,2.70
2019-03-08T20:17:19.512Z,2.70
2019-03-08T20:19:58.370Z,3.92
2019-03-08T20:22:45.339Z,2.80
2019-03-08T20:25:39.751Z,2.87
2019-03-08T20:28:43.103Z,3.12
2019-03-08T20:31:37.242Z,2.42
2019-03-08T20:34:24.287Z,2.67
2019-03-08T20:37:13.486Z,2.92
2019-03-08T20:40:09.504Z,2.75
2019-03-08T20:42:46.703Z,2.75
2019-03-08T20:45:30.451Z,2.45
2019-03-08T20:48:01.636Z,2.27
2019-03-08T20:50:30.762Z,2.60
2019-03-08T20:52:59.959Z,3.05
2019-03-08T20:55:29.398Z,2.77
2019-03-08T20:57:59.674Z,3.05
2019-03-08T21:00:28.860Z,2.62
2019-03-08T21:02:59.967Z,3.15
2019-03-08T21:05:29.438Z,2.65
2019-03-08T21:07:58.591Z,2.70
2019-03-08T21:10:34.328Z,2.80
2019-03-08T21:13:04.525Z,2.60
2019-03-08T21:15:33.686Z,2.40
2019-03-08T21:18:03.859Z,3.10
2019-03-08T21:20:42.482Z,2.40
2019-03-08T21:23:11.739Z,2.77
2019-03-08T21:25:45.948Z,3.20
2019-03-08T21:28:32.095Z,2.33
2019-03-08T21:31:02.305Z,2.55
2019-03-08T21:33:31.515Z,3.15
2019-03-08T21:36:12.798Z,3.05
2019-03-08T21:38:41.959Z,2.80
2019-03-08T21:41:30.244Z,2.75
2019-03-08T21:43:59.130Z,2.80
2019-03-08T21:46:28.137Z,3.20
2019-03-08T21:48:57.083Z,3.00
2019-03-08T21:51:26.174Z,2.67
2019-03-08T21:53:55.103Z,2.35
2019-03-08T21:56:24.094Z,2.98
2019-03-08T21:58:53.037Z,3.37
2019-03-08T22:01:25.870Z,2.60
2019-03-08T22:04:02.329Z,3.08
2019-03-08T22:06:31.273Z,3.08
2019-03-08T22:09:08.617Z,2.65
2019-03-08T22:11:41.614Z,2.58
2019-03-08T22:14:14.765Z,2.58
2019-03-08T22:16:47.638Z,2.87
2019-03-08T22:19:16.596Z,2.80
2019-03-08T22:21:48.665Z,3.10
2019-03-08T22:24:17.885Z,2.95
2019-03-08T22:26:46.930Z,3.45
2019-03-08T22:29:16.204Z,2.90
2019-03-08T22:31:45.234Z,2.80
2019-03-08T22:34:18.377Z,2.80
2019-03-08T22:36:47.576Z,2.72
2019-03-08T22:39:16.426Z,3.42
2019-03-08T22:41:45.429Z,3.55
2019-03-08T22:44:14.378Z,3.37
2019-03-08T22:46:45.817Z,3.40
2019-03-08T22:49:15.987Z,3.72
2019-03-08T22:51:44.917Z,2.90
2019-03-08T22:54:13.926Z,3.35
2019-03-08T22:56:48.602Z,2.90
2019-03-08T22:59:17.509Z,2.87
2019-03-08T23:01:49.611Z,3.15
2019-03-08T23:04:18.606Z,3.02
2019-03-08T23:06:47.611Z,2.33
2019-03-08T23:09:17.616Z,2.75
2019-03-08T23:11:46.636Z,2.50
2019-03-08T23:14:15.550Z,2.50
2019-03-08T23:16:44.834Z,2.20
2019-03-08T23:19:13.866Z,1.90
2019-03-08T23:21:45.985Z,2.42
2019-03-08T23:24:16.937Z,2.35
2019-03-08T23:26:57.820Z,2.00
2019-03-08T23:29:33.262Z,2.10
2019-03-08T23:32:06.486Z,2.50
2019-03-08T23:34:35.519Z,2.42
2019-03-08T23:37:04.546Z,2.80
2019-03-08T23:39:33.468Z,2.45
2019-03-08T23:42:02.435Z,2.25
2019-03-08T23:44:31.445Z,2.40
2019-03-08T23:47:00.498Z,2.62
2019-03-08T23:49:29.396Z,2.40
2019-03-08T23:51:58.316Z,2.50
2019-03-08T23:54:27.313Z,2.50
2019-03-08T23:56:56.165Z,2.35
2019-03-08T23:59:25.103Z,3.90
